Lodi, WI

4:41 PM CDT en Octubre 22, 2014 (GMT -0500)
Toneman3 | Change Station
CLOSE
Current Station
Estación meteorológica personal
Location: Lodi, WI
Altura: 879 ft
Estaciones meteorológicas cercanas

Alt 879 ft 43.32 °N, 89.54 °W | Updated 59 seconds ago

Despejado
Despejado
58.9 ° F
Sensación térmica 58.9 ° F
N
1.0
Viento Variable Viento desde SSE
Gusts 1.0 mph

Hoy
Alta -- | Baja -- ° F
--% Posibilidad de precipitaciones
Ayer
Alta -- | Baja -- ° F
Precip. -- pul
7:20 AM 6:03 PM
Creciente menguante, 1% visible
Presión 30.25 pul
Visibilidad 10.0 Millas
Nubes Despejado
Punto de rocío 41 ° F
Humedad 51%
Precipitaciones 0.00 pul
Espesor de la nieve No disponible.
UV 1 de una escala de 12
Polen 1.20 de una escala de 12
Calidad del aire No disponible.
Flu Activity Sporadic
METAR KC29 222115Z AUTO 18008KT 10SM CLR 16/00 A3025 RMK AO1 T01570003

More Conditions Fewer Conditions

Presión 30.25 pul
Visibilidad 10.0 Millas
Nubes Despejado
Punto de rocío 41 ° F
Humedad 51%
Precipitaciones 0.00 pul
Espesor de la nieve No disponible.
UV 1 de una escala de 12
Polen 1.20 de una escala de 12
Calidad del aire No disponible.
Flu Activity Sporadic
METAR KC29 222115Z AUTO 18008KT 10SM CLR 16/00 A3025 RMK AO1 T01570003

More Conditions Fewer Conditions

10-Day Weather Forecast

Almanac

Astronomía

Oct. 22, 2014 Salida Puesta
Hora real 7:20 AM CDT 6:03 PM CDT
Crepúsculo civil 6:51 AM CDT 6:33 PM CDT
Crepúsculo náutico 6:18 AM CDT 7:06 PM CDT
Crepúsculo astronómico 5:45 AM CDT 7:39 PM CDT
Luna 5:59 AM CDT 5:32 PM CDT
Horas de luz 11h 41m
Horas de luz
10h 43m
Tomorrow will be 2m 46s shorter.
Creciente menguante, 1% of the Moon is Illuminated
Hoy
Creciente menguante
Oct 23
Nueva
Oct 30
Cuarto creciente
Nov 6
Luna llena
Nov 14
Cuarto menguante

Extremos de hoy

Máximos del estado Bajos del estado

Community

WunderPhotos

Upload Photos

1,764,047 ¡fotos cargadas!

WunderBlogs® & News

By Dr. Jeff Masters
Director of Meteorology, Weather Underground
By Kari Strenfel
Meteorologist, Weather Underground
By Christopher C. Burt
Weather Historian, Weather Underground
October 22, 2014
October 22, 2014
October 22, 2014

Nearby

Grosos de nieve

Estación Profundido Altura
No tenemos constancia de nieve nueva.

Actividad de terremotos

Ciudad Distance Mag. Tiempo y dato
No hay informes recientes de la actividad sísmica.
Magnitud mínima muestra es 2,5.

Temperaturas de aguas costeras

Lugar Temperatura
Sin partes meteorológicos de las estaciones

Estaciones meteorológicas cercanas